Time;durP1;ratioP1;P1;durP2;ratioP2;P2;SDS_P1;SDS_P2;PMS_P1;PMS_P2;Temp;Humidity;BMP_temperature;BMP_pressure;BME280_temperature;BME280_humidity;BME280_pressure;Samples;Min_cycle;Max_cycle;Signal;HPM_P1;HPM_P2
2021/03/09 00:01:47;;;;;;;27.63;17.45;;;4.60;91.40;;;;;;5013102;28;20073;-69
2021/03/09 00:04:13;;;;;;;24.83;16.75;;;4.50;91.50;;;;;;5012291;28;20042;-69
2021/03/09 00:06:39;;;;;;;32.83;18.50;;;4.60;91.60;;;;;;5012872;28;20042;-69
2021/03/09 00:09:05;;;;;;;28.05;17.67;;;4.50;91.40;;;;;;5012786;28;20046;-69
2021/03/09 00:11:30;;;;;;;27.90;16.70;;;4.50;91.60;;;;;;5012176;28;20113;-69
2021/03/09 00:13:56;;;;;;;27.50;17.42;;;4.50;91.50;;;;;;5011898;28;20042;-69
2021/03/09 00:16:22;;;;;;;31.33;18.77;;;4.50;91.50;;;;;;5012316;28;20040;-69
2021/03/09 00:18:47;;;;;;;27.50;17.75;;;4.50;91.60;;;;;;5012642;28;20076;-69
2021/03/09 00:21:13;;;;;;;31.13;18.55;;;4.50;91.70;;;;;;5011968;28;20095;-69
2021/03/09 00:23:39;;;;;;;31.27;18.55;;;4.50;91.70;;;;;;5012111;28;20045;-69
2021/03/09 00:26:05;;;;;;;33.47;19.80;;;4.50;91.70;;;;;;5011913;28;20095;-69
2021/03/09 00:28:30;;;;;;;32.95;19.75;;;4.40;91.70;;;;;;5011809;28;20441;-69
2021/03/09 00:30:56;;;;;;;31.23;18.00;;;4.50;91.80;;;;;;5012382;28;20048;-69
2021/03/09 00:33:22;;;;;;;33.40;20.35;;;4.50;91.70;;;;;;5011613;28;20045;-69
2021/03/09 00:35:47;;;;;;;31.45;19.08;;;4.50;91.70;;;;;;5011740;28;20041;-69
2021/03/09 00:38:13;;;;;;;31.67;20.40;;;4.60;91.70;;;;;;5011783;28;20042;-69
2021/03/09 00:40:39;;;;;;;37.53;22.98;;;4.50;91.80;;;;;;5011906;28;20496;-69
2021/03/09 00:43:04;;;;;;;36.13;20.98;;;4.60;91.70;;;;;;5011485;28;20064;-69
2021/03/09 00:45:30;;;;;;;32.53;20.05;;;4.60;91.70;;;;;;5011417;28;20046;-69
2021/03/09 00:47:57;;;;;;;32.65;20.23;;;4.60;91.60;;;;;;5011389;28;20045;-69
2021/03/09 00:50:22;;;;;;;34.22;21.13;;;4.60;91.70;;;;;;5012258;28;20038;-69
2021/03/09 00:52:48;;;;;;;38.25;22.75;;;4.50;91.60;;;;;;5010414;28;20477;-69
2021/03/09 00:55:14;;;;;;;36.35;22.98;;;4.50;91.70;;;;;;5011723;28;20095;-69
2021/03/09 00:57:40;;;;;;;35.47;22.20;;;4.40;91.80;;;;;;5011609;28;20041;-69
2021/03/09 01:00:07;;;;;;;41.80;24.08;;;4.40;92.10;;;;;;5011911;28;20496;-69
2021/03/09 01:02:32;;;;;;;34.40;21.05;;;4.40;91.90;;;;;;5011335;28;20103;-69
2021/03/09 01:04:58;;;;;;;36.13;23.25;;;4.30;92.00;;;;;;5011258;28;20490;-69
2021/03/09 01:07:24;;;;;;;39.17;24.08;;;4.30;92.20;;;;;;5011568;28;20106;-69
2021/03/09 01:09:50;;;;;;;35.75;22.63;;;4.30;92.10;;;;;;5011414;28;20486;-69
2021/03/09 01:12:15;;;;;;;40.80;24.17;;;4.40;92.20;;;;;;5011870;28;20034;-69
2021/03/09 01:14:41;;;;;;;42.83;24.45;;;4.40;92.10;;;;;;5011251;28;20410;-69
2021/03/09 01:17:06;;;;;;;41.20;25.25;;;4.50;92.10;;;;;;5011118;28;20411;-69
2021/03/09 01:19:32;;;;;;;40.63;23.58;;;4.40;92.20;;;;;;5011860;28;20038;-69
2021/03/09 01:21:58;;;;;;;39.70;23.15;;;4.40;92.20;;;;;;5011026;28;20038;-69
2021/03/09 01:24:24;;;;;;;43.05;24.27;;;4.40;92.30;;;;;;5010893;28;20042;-69
2021/03/09 01:26:49;;;;;;;39.95;23.80;;;4.40;92.20;;;;;;5011182;28;20156;-69
2021/03/09 01:29:15;;;;;;;40.03;22.75;;;4.40;92.10;;;;;;5011490;28;20132;-69
2021/03/09 01:31:41;;;;;;;44.38;25.73;;;4.40;92.30;;;;;;5011337;28;20119;-69
2021/03/09 01:34:06;;;;;;;40.38;22.83;;;4.40;92.20;;;;;;5010824;28;20601;-69
2021/03/09 01:36:32;;;;;;;41.88;24.80;;;4.40;92.30;;;;;;5011332;28;20139;-69
2021/03/09 01:38:58;;;;;;;36.58;22.33;;;4.40;92.20;;;;;;5012030;28;20371;-69
2021/03/09 01:41:24;;;;;;;37.33;22.75;;;4.40;92.20;;;;;;5012232;28;20478;-69
2021/03/09 01:43:49;;;;;;;36.90;22.77;;;4.50;92.00;;;;;;5011335;28;20050;-69
2021/03/09 01:46:17;;;;;;;41.72;23.58;;;4.60;92.10;;;;;;5011149;28;20050;-69
2021/03/09 01:48:45;;;;;;;34.13;21.95;;;4.50;92.00;;;;;;5011478;28;20387;-69
2021/03/09 01:51:18;;;;;;;43.22;25.10;;;4.60;92.00;;;;;;5010894;28;20117;-69
2021/03/09 01:53:44;;;;;;;40.92;23.58;;;4.60;92.00;;;;;;5009177;28;20079;-69
2021/03/09 01:56:11;;;;;;;39.63;23.92;;;4.60;92.00;;;;;;5010649;28;20042;-69
2021/03/09 01:58:40;;;;;;;39.65;22.63;;;4.50;92.00;;;;;;5010616;28;20098;-69
2021/03/09 02:01:06;;;;;;;40.03;23.02;;;4.50;92.20;;;;;;5011502;28;20470;-69
2021/03/09 02:03:32;;;;;;;40.25;22.20;;;4.50;92.10;;;;;;5010584;28;20102;-69
2021/03/09 02:05:58;;;;;;;35.38;22.35;;;4.50;92.20;;;;;;5010371;28;20056;-69
2021/03/09 02:08:24;;;;;;;37.72;23.23;;;4.40;92.20;;;;;;5010348;28;20034;-69
2021/03/09 02:11:39;;;;;;;40.75;23.58;;;4.50;92.30;;;;;;5010919;28;20083;-69
2021/03/09 02:14:31;;;;;;;38.25;21.90;;;4.40;92.30;;;;;;5020412;28;20054;-69
2021/03/09 02:17:06;;;;;;;37.45;22.40;;;4.50;92.30;;;;;;5020647;28;20069;-69
2021/03/09 02:20:01;;;;;;;35.50;22.00;;;4.40;92.60;;;;;;5009850;28;20385;-69
2021/03/09 02:22:47;;;;;;;39.75;22.52;;;4.40;92.60;;;;;;5010319;28;20098;-69
2021/03/09 02:25:45;;;;;;;36.53;20.23;;;4.50;92.60;;;;;;5009189;28;20042;-69
2021/03/09 02:28:31;;;;;;;35.60;20.95;;;4.50;92.30;;;;;;5013324;28;20041;-69
2021/03/09 02:30:58;;;;;;;37.42;21.63;;;4.50;92.30;;;;;;5010405;28;20053;-69
2021/03/09 02:33:35;;;;;;;35.50;20.20;;;4.50;92.30;;;;;;5010112;28;20113;-69
2021/03/09 02:36:11;;;;;;;37.50;21.27;;;4.60;92.20;;;;;;5009428;28;20183;-69
2021/03/09 02:39:01;;;;;;;33.53;20.27;;;4.60;92.60;;;;;;5010358;28;20394;-69
2021/03/09 02:41:29;;;;;;;33.35;19.38;;;4.60;92.40;;;;;;5010392;28;20038;-69
2021/03/09 02:43:55;;;;;;;32.88;19.17;;;4.60;92.30;;;;;;5010091;28;20116;-69
2021/03/09 02:46:24;;;;;;;33.45;19.98;;;4.60;92.20;;;;;;5010715;28;20056;-69
2021/03/09 02:48:51;;;;;;;32.33;18.85;;;4.60;92.20;;;;;;5009986;28;20069;-69
2021/03/09 02:51:18;;;;;;;30.23;18.70;;;4.70;92.10;;;;;;5010673;28;20073;-69
2021/03/09 02:53:50;;;;;;;32.85;19.65;;;4.70;92.50;;;;;;5009686;28;20034;-69
2021/03/09 02:56:17;;;;;;;34.58;19.50;;;4.60;92.30;;;;;;5010500;28;20485;-69
2021/03/09 02:58:45;;;;;;;35.10;20.08;;;4.50;92.30;;;;;;5010370;28;20060;-69
2021/03/09 03:01:12;;;;;;;36.50;20.25;;;4.50;92.30;;;;;;5009924;28;20069;-69
2021/03/09 03:03:40;;;;;;;31.15;19.33;;;4.60;92.40;;;;;;5009659;28;20052;-69
2021/03/09 03:06:07;;;;;;;30.65;17.60;;;4.50;92.50;;;;;;5009964;28;20459;-69
2021/03/09 03:08:34;;;;;;;29.33;18.25;;;4.50;92.40;;;;;;5010241;28;20073;-69
2021/03/09 03:11:02;;;;;;;28.35;17.13;;;4.60;92.40;;;;;;5010171;28;20549;-69
2021/03/09 03:13:28;;;;;;;32.00;18.52;;;4.60;92.40;;;;;;5013023;28;20046;-69
2021/03/09 03:15:55;;;;;;;28.85;17.30;;;4.60;92.40;;;;;;5013804;28;20034;-69
2021/03/09 03:18:22;;;;;;;29.92;17.63;;;4.60;92.40;;;;;;5013295;28;20038;-69
2021/03/09 03:20:49;;;;;;;28.88;16.80;;;4.60;92.50;;;;;;5013857;28;20045;-69
2021/03/09 03:23:16;;;;;;;29.42;17.85;;;4.60;92.40;;;;;;5012893;28;20038;-69
2021/03/09 03:25:54;;;;;;;26.95;16.30;;;4.60;92.40;;;;;;5012871;28;20037;-69
2021/03/09 03:28:22;;;;;;;30.73;17.35;;;4.70;92.40;;;;;;5013432;28;20087;-69
2021/03/09 03:30:50;;;;;;;28.23;16.67;;;4.60;92.40;;;;;;5013291;28;20038;-69
2021/03/09 03:33:16;;;;;;;26.73;16.65;;;4.60;92.40;;;;;;5012722;28;20054;-69
2021/03/09 03:35:43;;;;;;;26.73;15.82;;;4.60;92.40;;;;;;5012813;28;20038;-69
2021/03/09 03:38:14;;;;;;;25.73;16.40;;;4.70;92.40;;;;;;5012943;28;20427;-69
2021/03/09 03:40:40;;;;;;;28.33;16.60;;;4.70;92.40;;;;;;5012976;28;20045;-69
2021/03/09 03:43:06;;;;;;;28.40;17.17;;;4.70;92.40;;;;;;5012721;28;20038;-69
2021/03/09 03:45:32;;;;;;;29.48;17.25;;;4.70;92.40;;;;;;5013238;28;20065;-69
2021/03/09 03:48:00;;;;;;;28.92;17.73;;;4.70;92.40;;;;;;5012787;28;20037;-69
2021/03/09 03:50:26;;;;;;;26.23;16.42;;;4.70;92.40;;;;;;5011652;28;20073;-69
2021/03/09 03:53:19;;;;;;;24.25;15.88;;;4.70;92.60;;;;;;5012207;28;20493;-69
2021/03/09 03:56:22;;;;;;;25.27;15.75;;;4.80;92.60;;;;;;5021929;28;20057;-69
2021/03/09 03:58:53;;;;;;;28.67;16.58;;;4.70;92.50;;;;;;5012701;28;20473;-69
2021/03/09 04:01:23;;;;;;;26.77;16.65;;;4.70;92.50;;;;;;5012547;28;20041;-69
2021/03/09 04:03:52;;;;;;;25.38;15.70;;;4.70;92.60;;;;;;5012006;28;20046;-69
2021/03/09 04:06:22;;;;;;;27.45;17.02;;;4.80;92.60;;;;;;5012491;28;20087;-69
2021/03/09 04:08:49;;;;;;;25.35;15.98;;;4.70;92.50;;;;;;5012431;28;20383;-69
2021/03/09 04:11:16;;;;;;;27.38;16.52;;;4.70;92.50;;;;;;5012227;28;20033;-69
2021/03/09 04:13:43;;;;;;;27.75;16.27;;;4.70;92.50;;;;;;5012165;28;20501;-69
2021/03/09 04:16:12;;;;;;;29.15;17.80;;;4.80;92.50;;;;;;5012374;28;20416;-69
2021/03/09 04:18:38;;;;;;;27.75;17.00;;;4.80;92.50;;;;;;5012717;28;20064;-69
2021/03/09 04:21:05;;;;;;;23.27;14.40;;;4.70;92.70;;;;;;5012040;28;20542;-69
2021/03/09 04:23:32;;;;;;;22.80;15.25;;;4.70;92.70;;;;;;5010682;28;20440;-69
2021/03/09 04:26:00;;;;;;;24.85;15.50;;;4.80;92.60;;;;;;5012058;28;20125;-69
2021/03/09 04:28:26;;;;;;;29.77;16.30;;;4.80;92.60;;;;;;5011495;28;20049;-69
2021/03/09 04:30:52;;;;;;;23.00;14.93;;;4.80;92.70;;;;;;5012494;28;20046;-69
2021/03/09 04:33:18;;;;;;;24.42;15.13;;;4.70;92.60;;;;;;5011476;28;20406;-69
2021/03/09 04:35:44;;;;;;;24.25;15.23;;;4.80;92.50;;;;;;5012373;28;20038;-69
2021/03/09 04:38:10;;;;;;;27.45;15.75;;;4.90;92.50;;;;;;5012046;28;20475;-69
2021/03/09 04:40:37;;;;;;;23.30;15.27;;;4.80;92.50;;;;;;5012049;28;20037;-69
2021/03/09 04:43:04;;;;;;;25.48;15.70;;;4.80;92.60;;;;;;5011632;28;20067;-69
2021/03/09 04:45:32;;;;;;;28.15;15.45;;;4.80;92.60;;;;;;5011513;28;20116;-69
2021/03/09 04:48:02;;;;;;;21.52;14.13;;;4.80;92.60;;;;;;5012442;28;20057;-69
2021/03/09 04:50:28;;;;;;;28.92;16.85;;;4.90;92.60;;;;;;5011659;28;20044;-69
2021/03/09 04:52:54;;;;;;;25.42;16.42;;;4.90;92.50;;;;;;5010461;28;20044;-69
2021/03/09 04:55:22;;;;;;;23.50;14.50;;;4.90;92.60;;;;;;5011550;28;20038;-69
2021/03/09 04:57:48;;;;;;;23.33;14.52;;;4.90;92.60;;;;;;5011747;28;20539;-69
2021/03/09 05:00:20;;;;;;;24.95;15.48;;;4.90;92.50;;;;;;5011964;28;20038;-69
2021/03/09 05:02:47;;;;;;;27.38;16.60;;;4.90;92.50;;;;;;5011891;28;20042;-69
2021/03/09 05:05:14;;;;;;;29.05;16.70;;;4.90;92.40;;;;;;5011148;28;20115;-69
2021/03/09 05:07:40;;;;;;;28.70;17.52;;;4.90;92.40;;;;;;5011372;28;20128;-69
2021/03/09 05:10:07;;;;;;;25.40;16.55;;;4.90;92.50;;;;;;5011135;28;20053;-69
2021/03/09 05:12:44;;;;;;;24.75;15.68;;;4.90;92.60;;;;;;5011492;28;20038;-69
2021/03/09 05:15:10;;;;;;;24.25;15.48;;;5.00;92.50;;;;;;5010927;28;20041;-69
2021/03/09 05:17:37;;;;;;;25.05;16.40;;;5.00;92.50;;;;;;5012099;28;20470;-69
2021/03/09 05:20:04;;;;;;;22.67;15.52;;;5.00;92.50;;;;;;5011459;28;20042;-69
2021/03/09 05:22:30;;;;;;;26.92;16.52;;;4.90;92.60;;;;;;5011364;28;20048;-69
2021/03/09 05:24:56;;;;;;;27.20;16.17;;;4.90;92.60;;;;;;5011568;28;20049;-69
2021/03/09 05:27:21;;;;;;;26.77;16.38;;;5.00;92.60;;;;;;5011598;28;20074;-69
2021/03/09 05:29:47;;;;;;;24.17;16.15;;;5.00;92.60;;;;;;5011770;28;20511;-69
2021/03/09 05:32:13;;;;;;;27.95;17.55;;;5.00;92.70;;;;;;5010885;28;20397;-69
2021/03/09 05:34:39;;;;;;;28.27;18.35;;;5.00;92.50;;;;;;5010555;28;20042;-69
2021/03/09 05:37:08;;;;;;;27.52;16.67;;;5.00;92.50;;;;;;5011329;28;20037;-69
2021/03/09 05:39:35;;;;;;;26.17;17.48;;;5.00;92.50;;;;;;5011536;28;20048;-69
2021/03/09 05:42:01;;;;;;;29.02;17.10;;;5.00;92.50;;;;;;5011607;28;20042;-69
2021/03/09 05:44:26;;;;;;;30.13;19.08;;;5.00;92.50;;;;;;5010586;28;20041;-69
2021/03/09 05:46:52;;;;;;;31.60;19.40;;;5.00;92.50;;;;;;5010783;28;20090;-69
2021/03/09 05:49:18;;;;;;;27.13;16.98;;;5.00;92.50;;;;;;5011042;28;20030;-69
2021/03/09 05:51:44;;;;;;;29.08;17.58;;;5.00;92.50;;;;;;5010717;28;20085;-69
2021/03/09 05:54:10;;;;;;;29.40;17.98;;;5.00;92.50;;;;;;5010969;28;20046;-69
2021/03/09 05:56:36;;;;;;;29.08;18.45;;;5.10;92.50;;;;;;5011112;28;20091;-69
2021/03/09 05:59:02;;;;;;;28.83;18.10;;;5.10;92.50;;;;;;5010574;28;20034;-69
2021/03/09 06:01:28;;;;;;;28.63;17.48;;;5.10;92.40;;;;;;5010702;28;20049;-69
2021/03/09 06:03:54;;;;;;;27.98;18.13;;;5.10;92.50;;;;;;5010057;28;20064;-69
2021/03/09 06:06:19;;;;;;;29.77;18.35;;;5.10;92.40;;;;;;5010406;28;20034;-69
2021/03/09 06:08:45;;;;;;;29.95;18.13;;;5.10;92.50;;;;;;5010874;28;20456;-69
2021/03/09 06:11:20;;;;;;;32.75;18.35;;;5.10;92.50;;;;;;5010891;28;20049;-69
2021/03/09 06:13:47;;;;;;;33.45;19.52;;;5.20;92.50;;;;;;5010200;28;20045;-69
2021/03/09 06:16:13;;;;;;;33.13;20.08;;;5.10;92.50;;;;;;5009509;28;20133;-69
2021/03/09 06:18:58;;;;;;;33.05;19.50;;;5.10;92.50;;;;;;5010463;28;20038;-69
2021/03/09 06:21:25;;;;;;;33.90;22.58;;;5.10;92.50;;;;;;5011208;28;20030;-69
2021/03/09 06:23:52;;;;;;;29.33;19.23;;;5.10;92.50;;;;;;5010001;28;20042;-69
2021/03/09 06:26:39;;;;;;;33.20;20.88;;;5.20;92.50;;;;;;5010163;28;20069;-69
2021/03/09 06:29:16;;;;;;;37.03;20.50;;;5.20;92.50;;;;;;5010645;28;20069;-69
2021/03/09 06:31:56;;;;;;;34.08;20.65;;;5.20;92.50;;;;;;5010247;28;20034;-69
2021/03/09 06:34:33;;;;;;;33.00;20.10;;;5.20;92.50;;;;;;5009912;28;20038;-69
2021/03/09 06:37:17;;;;;;;37.67;21.88;;;5.20;92.60;;;;;;5009937;28;20482;-69
2021/03/09 06:39:51;;;;;;;32.28;19.88;;;5.20;92.50;;;;;;5010581;28;20430;-69
2021/03/09 06:42:29;;;;;;;35.55;20.75;;;5.10;92.60;;;;;;5010755;28;20046;-69
2021/03/09 06:44:59;;;;;;;36.17;21.13;;;5.20;92.70;;;;;;5009664;28;20561;-68
2021/03/09 06:47:33;;;;;;;36.40;23.42;;;5.20;92.70;;;;;;5012637;28;20073;-68
2021/03/09 06:49:59;;;;;;;35.42;20.85;;;5.20;92.70;;;;;;5013326;28;20042;-68
2021/03/09 06:52:26;;;;;;;40.05;24.27;;;5.20;92.80;;;;;;5013472;28;20038;-68
2021/03/09 06:54:54;;;;;;;45.60;25.98;;;5.20;92.70;;;;;;5013308;28;20091;-68
2021/03/09 06:57:21;;;;;;;46.15;25.00;;;5.20;92.80;;;;;;5013466;28;20057;-68
2021/03/09 06:59:49;;;;;;;57.63;27.77;;;5.20;92.80;;;;;;5013284;28;20038;-68
2021/03/09 07:02:28;;;;;;;46.70;24.48;;;5.20;92.80;;;;;;5013555;28;20042;-68
2021/03/09 07:05:04;;;;;;;49.47;24.40;;;5.20;92.90;;;;;;5012820;28;20414;-68
2021/03/09 07:07:35;;;;;;;58.22;27.70;;;5.30;93.00;;;;;;5013210;28;20044;-68
2021/03/09 07:10:06;;;;;;;58.45;28.52;;;5.20;93.00;;;;;;5013130;28;20094;-68
2021/03/09 07:12:32;;;;;;;56.63;26.73;;;5.20;93.10;;;;;;5012907;28;20474;-68
2021/03/09 07:14:59;;;;;;;51.33;26.67;;;5.10;93.10;;;;;;5012719;28;20050;-68
2021/03/09 07:17:29;;;;;;;55.90;26.42;;;5.10;93.30;;;;;;5013488;28;20042;-68
2021/03/09 07:19:56;;;;;;;55.45;27.55;;;5.20;93.30;;;;;;5013279;28;20042;-68
2021/03/09 07:22:24;;;;;;;72.55;31.30;;;5.10;93.50;;;;;;5012318;28;20069;-68
2021/03/09 07:25:31;;;;;;;50.53;25.05;;;5.10;93.60;;;;;;5012661;28;20545;-68
2021/03/09 07:28:10;;;;;;;51.20;24.52;;;5.10;93.50;;;;;;5033798;28;20041;-68
2021/03/09 07:30:39;;;;;;;58.40;27.05;;;5.10;93.50;;;;;;5015384;28;20064;-68
2021/03/09 07:33:06;;;;;;;63.50;28.30;;;5.20;93.60;;;;;;5012014;28;20049;-68
2021/03/09 07:35:32;;;;;;;56.70;26.33;;;5.20;93.50;;;;;;5012678;28;20038;-68
2021/03/09 07:37:58;;;;;;;72.03;29.85;;;5.20;93.50;;;;;;5012575;28;20091;-68
2021/03/09 07:40:29;;;;;;;55.85;28.88;;;5.20;93.50;;;;;;5013083;28;20091;-68
2021/03/09 07:42:56;;;;;;;62.35;31.08;;;5.20;93.70;;;;;;5012619;28;20044;-68
2021/03/09 07:45:35;;;;;;;83.13;33.20;;;5.20;93.90;;;;;;5012736;28;20045;-68
2021/03/09 07:48:05;;;;;;;88.00;33.70;;;5.20;93.80;;;;;;5012750;28;20034;-67
2021/03/09 07:50:34;;;;;;;60.25;30.33;;;5.30;93.80;;;;;;5013007;28;20038;-68
2021/03/09 07:53:04;;;;;;;46.97;25.70;;;5.30;93.70;;;;;;5012762;28;20061;-68
2021/03/09 07:55:30;;;;;;;54.83;27.40;;;5.30;93.70;;;;;;5012904;28;20045;-68
2021/03/09 07:58:22;;;;;;;55.13;27.38;;;5.40;93.80;;;;;;5012331;28;20046;-68
2021/03/09 08:00:54;;;;;;;56.42;27.38;;;5.40;93.70;;;;;;5011272;28;20500;-68
2021/03/09 08:03:21;;;;;;;56.28;28.13;;;5.40;93.50;;;;;;5011914;28;20110;-68
2021/03/09 08:05:50;;;;;;;56.40;26.60;;;5.40;93.60;;;;;;5011814;28;20050;-68
2021/03/09 08:08:35;;;;;;;65.90;27.98;;;5.40;93.60;;;;;;5012380;28;20083;-68
2021/03/09 08:11:02;;;;;;;68.40;30.73;;;5.40;93.60;;;;;;5012534;28;20068;-68
2021/03/09 08:13:29;;;;;;;45.15;26.13;;;5.50;93.70;;;;;;5012010;28;20478;-69
2021/03/09 08:16:19;;;;;;;53.35;26.42;;;5.50;93.60;;;;;;5012158;28;20042;-68
2021/03/09 08:18:52;;;;;;;55.30;28.65;;;5.60;93.50;;;;;;5011945;28;20049;-68
2021/03/09 08:21:19;;;;;;;51.25;27.42;;;5.60;93.40;;;;;;5012256;28;20049;-68
2021/03/09 08:23:44;;;;;;;114.70;36.20;;;5.40;93.60;;;;;;5011851;28;20069;-68
2021/03/09 08:26:19;;;;;;;59.35;29.50;;;5.40;93.70;;;;;;5012070;28;20078;-67
2021/03/09 08:28:45;;;;;;;50.70;26.20;;;5.50;93.80;;;;;;5012456;28;20038;-69
2021/03/09 08:31:13;;;;;;;83.80;32.28;;;5.50;93.70;;;;;;5012168;28;20034;-68
2021/03/09 08:33:40;;;;;;;47.97;25.95;;;5.50;93.80;;;;;;5011529;28;20086;-69
2021/03/09 08:39:07;;;;;;;62.53;31.42;;;5.50;94.00;;;;;;5011685;28;20041;-67
2021/03/09 08:41:42;;;;;;;156.90;43.53;;;5.50;94.00;;;;;;5012095;28;20037;-67
2021/03/09 08:44:21;;;;;;;70.93;31.67;;;5.40;94.00;;;;;;5011733;28;20111;-68
2021/03/09 08:47:07;;;;;;;107.57;36.80;;;5.50;94.30;;;;;;5011613;28;20482;-66
2021/03/09 08:52:11;;;;;;;116.68;36.65;;;5.40;94.40;;;;;;5011516;28;20142;-66
2021/03/09 08:54:46;;;;;;;201.90;48.67;;;5.40;94.30;;;;;;5011196;28;20450;-67
2021/03/09 08:57:17;;;;;;;106.90;34.25;;;5.40;94.30;;;;;;5011469;28;20050;-67
2021/03/09 08:59:46;;;;;;;99.90;35.15;;;5.40;94.40;;;;;;5010098;28;20561;-67
2021/03/09 09:02:19;;;;;;;114.72;34.00;;;5.30;94.30;;;;;;5011274;28;20038;-68
2021/03/09 09:04:56;;;;;;;94.18;34.38;;;5.30;94.40;;;;;;5011002;28;20106;-67
2021/03/09 09:07:36;;;;;;;105.65;36.13;;;5.30;94.60;;;;;;5011380;28;20045;-68
2021/03/09 09:10:15;;;;;;;114.13;35.60;;;5.30;94.70;;;;;;5011225;28;20034;-68
2021/03/09 09:12:44;;;;;;;102.22;36.90;;;5.30;94.60;;;;;;5009496;28;20073;-67
2021/03/09 09:15:21;;;;;;;116.75;38.28;;;5.30;94.70;;;;;;5009665;28;20046;-68
2021/03/09 09:17:51;;;;;;;108.93;37.22;;;5.20;94.60;;;;;;5010014;28;20050;-68
2021/03/09 09:20:39;;;;;;;74.22;34.10;;;5.30;94.70;;;;;;5010983;28;20045;-68
2021/03/09 09:23:12;;;;;;;96.25;33.47;;;5.30;94.80;;;;;;5013633;28;20076;-68
2021/03/09 09:25:40;;;;;;;89.60;35.75;;;5.30;94.60;;;;;;5028103;28;20045;-68
2021/03/09 09:28:06;;;;;;;123.57;37.30;;;5.30;94.60;;;;;;5030888;28;20130;-68
2021/03/09 09:30:41;;;;;;;98.15;36.30;;;5.30;94.70;;;;;;5030519;28;20033;-68
2021/03/09 09:33:09;;;;;;;79.90;32.70;;;5.30;94.70;;;;;;5030183;28;20102;-68
2021/03/09 09:35:35;;;;;;;114.35;38.83;;;5.40;94.60;;;;;;5030407;28;20069;-68
2021/03/09 09:38:05;;;;;;;135.18;42.22;;;5.50;94.30;;;;;;5030321;28;20066;-68
2021/03/09 09:40:52;;;;;;;92.40;34.50;;;5.40;94.60;;;;;;5030506;28;20078;-68
2021/03/09 09:43:20;;;;;;;54.03;29.17;;;5.40;94.50;;;;;;5027420;28;20501;-68
2021/03/09 09:45:53;;;;;;;59.05;29.17;;;5.40;94.30;;;;;;5011008;28;20060;-68
2021/03/09 09:48:22;;;;;;;70.95;32.03;;;5.50;94.00;;;;;;5010719;28;20049;-68
2021/03/09 09:50:50;;;;;;;69.45;29.92;;;5.40;94.00;;;;;;5010606;28;20118;-68
2021/03/09 09:53:36;;;;;;;94.30;37.17;;;5.40;94.20;;;;;;5010120;28;20072;-68
2021/03/09 09:56:04;;;;;;;79.18;33.17;;;5.30;94.30;;;;;;5010956;28;20056;-68
2021/03/09 09:58:46;;;;;;;60.88;30.48;;;5.30;94.30;;;;;;5010408;28;20447;-68
2021/03/09 10:01:31;;;;;;;84.15;32.00;;;5.40;94.20;;;;;;5010552;28;20099;-68
2021/03/09 10:03:58;;;;;;;65.43;30.15;;;5.20;94.00;;;;;;5009961;28;20045;-68
2021/03/09 10:06:29;;;;;;;85.18;33.03;;;5.20;94.20;;;;;;5010349;28;20129;-68
2021/03/09 10:09:07;;;;;;;68.10;32.53;;;5.20;94.20;;;;;;5011104;28;20038;-68
2021/03/09 10:11:44;;;;;;;55.88;28.25;;;5.20;94.20;;;;;;5010598;28;20061;-68
2021/03/09 10:14:10;;;;;;;50.97;27.45;;;5.20;94.20;;;;;;5010394;28;20041;-68
2021/03/09 10:16:40;;;;;;;45.55;25.52;;;5.20;94.00;;;;;;5010206;28;20490;-68
2021/03/09 10:19:08;;;;;;;71.30;29.23;;;5.30;94.00;;;;;;5010738;28;20048;-68
2021/03/09 10:21:38;;;;;;;58.08;30.25;;;5.10;93.90;;;;;;5013013;28;20038;-68
2021/03/09 10:24:06;;;;;;;64.18;32.72;;;5.20;94.30;;;;;;5013263;28;20440;-68
2021/03/09 10:26:41;;;;;;;57.15;28.55;;;5.30;94.50;;;;;;5014079;28;20038;-68
2021/03/09 10:29:21;;;;;;;58.83;30.58;;;5.10;94.20;;;;;;5012971;28;20046;-68
2021/03/09 10:32:00;;;;;;;56.80;29.95;;;5.20;94.50;;;;;;5013544;28;20081;-68
2021/03/09 10:34:38;;;;;;;65.80;29.75;;;5.30;93.90;;;;;;5013293;28;20034;-68
2021/03/09 10:37:04;;;;;;;54.97;28.73;;;5.40;93.70;;;;;;5013610;28;20409;-68
2021/03/09 10:39:32;;;;;;;62.88;30.38;;;5.40;93.30;;;;;;5013603;28;20034;-68
2021/03/09 10:42:34;;;;;;;70.90;31.92;;;5.30;93.30;;;;;;5013069;28;20054;-68
2021/03/09 10:45:15;;;;;;;64.45;31.88;;;5.30;93.50;;;;;;5013687;28;20052;-68
2021/03/09 10:47:41;;;;;;;71.53;32.55;;;5.30;93.40;;;;;;5013721;28;20558;-68
2021/03/09 10:50:08;;;;;;;65.03;31.50;;;5.40;93.20;;;;;;5013339;28;20182;-67
2021/03/09 10:52:34;;;;;;;60.50;29.50;;;5.40;93.10;;;;;;5013874;28;20067;-69
2021/03/09 10:54:59;;;;;;;54.20;27.70;;;5.20;93.10;;;;;;5013525;28;20034;-68
2021/03/09 10:57:25;;;;;;;65.22;33.33;;;5.10;93.20;;;;;;5013521;28;20038;-68
2021/03/09 10:59:51;;;;;;;63.85;30.08;;;5.10;93.40;;;;;;5013101;28;20117;-68
2021/03/09 11:02:17;;;;;;;61.17;30.75;;;5.00;93.30;;;;;;5013035;28;20189;-68
2021/03/09 11:04:42;;;;;;;63.53;30.02;;;5.00;93.40;;;;;;5012984;28;20127;-68
2021/03/09 11:07:08;;;;;;;48.58;26.60;;;5.00;93.40;;;;;;5012727;28;20049;-68
2021/03/09 11:09:34;;;;;;;56.85;26.77;;;4.90;93.30;;;;;;5013446;28;20045;-68
2021/03/09 11:12:00;;;;;;;53.92;28.58;;;5.00;93.30;;;;;;5013054;28;20038;-68
2021/03/09 11:14:26;;;;;;;48.97;24.95;;;5.10;93.10;;;;;;5012688;28;20074;-68
2021/03/09 11:16:52;;;;;;;57.08;27.27;;;5.20;92.60;;;;;;5013226;28;20066;-68
2021/03/09 11:19:17;;;;;;;46.90;24.52;;;5.20;92.80;;;;;;5013519;28;20480;-68
2021/03/09 11:21:43;;;;;;;53.10;26.77;;;5.30;92.50;;;;;;5013383;28;20048;-68
2021/03/09 11:24:09;;;;;;;49.80;26.20;;;5.20;92.80;;;;;;5012718;28;20037;-68
2021/03/09 11:26:36;;;;;;;55.28;26.52;;;5.40;92.60;;;;;;5013558;28;20076;-68
2021/03/09 11:29:03;;;;;;;49.75;25.85;;;5.40;92.10;;;;;;5011610;28;20042;-68
2021/03/09 11:31:28;;;;;;;57.47;31.95;;;5.40;92.10;;;;;;5011755;28;20084;-68
2021/03/09 11:33:54;;;;;;;52.15;27.35;;;5.40;92.30;;;;;;5012041;28;20074;-68
2021/03/09 11:36:20;;;;;;;53.00;28.02;;;5.50;91.90;;;;;;5013121;28;20120;-68
2021/03/09 11:38:47;;;;;;;52.63;28.35;;;5.50;91.80;;;;;;5065278;27;20039;-68
2021/03/09 11:41:15;;;;;;;52.95;27.23;;;5.50;91.80;;;;;;5135565;27;20039;-68
2021/03/09 11:43:42;;;;;;;56.13;27.45;;;5.40;91.90;;;;;;5136884;27;20471;-68
2021/03/09 11:46:07;;;;;;;58.97;30.52;;;5.40;91.80;;;;;;5136577;27;20046;-68
2021/03/09 11:48:33;;;;;;;66.28;32.80;;;5.50;92.00;;;;;;5137259;27;20035;-68
2021/03/09 11:51:00;;;;;;;53.92;30.17;;;5.40;91.90;;;;;;5136551;27;20518;-68
2021/03/09 11:53:26;;;;;;;55.72;28.38;;;5.50;91.60;;;;;;5136277;27;20039;-68
2021/03/09 11:55:51;;;;;;;53.05;28.85;;;5.60;91.60;;;;;;5136894;27;20473;-68
2021/03/09 11:58:18;;;;;;;49.08;26.48;;;5.70;91.20;;;;;;5134756;27;20043;-68
2021/03/09 12:00:44;;;;;;;46.47;25.45;;;5.60;91.10;;;;;;5136912;27;20051;-68
2021/03/09 12:03:09;;;;;;;44.50;23.00;;;5.60;91.20;;;;;;5134817;27;20426;-68
2021/03/09 12:05:35;;;;;;;40.63;22.73;;;5.50;91.10;;;;;;5136252;27;20111;-68
2021/03/09 12:08:01;;;;;;;39.10;22.40;;;5.60;90.80;;;;;;5136544;27;20070;-71
2021/03/09 12:10:28;;;;;;;50.85;27.33;;;5.70;90.20;;;;;;5136728;27;20043;-72
2021/03/09 12:12:54;;;;;;;50.13;28.38;;;5.80;90.10;;;;;;5136255;27;20562;-72
2021/03/09 12:15:20;;;;;;;53.05;28.40;;;5.70;90.40;;;;;;5135883;27;20043;-72
2021/03/09 12:17:45;;;;;;;55.70;29.70;;;5.60;90.60;;;;;;5136007;27;20035;-71
2021/03/09 12:20:12;;;;;;;59.25;29.33;;;5.60;90.90;;;;;;5136425;27;20459;-72
2021/03/09 12:22:37;;;;;;;49.80;27.02;;;5.60;91.00;;;;;;5135426;27;20039;-72
2021/03/09 12:25:05;;;;;;;51.15;27.70;;;5.60;90.80;;;;;;5135596;27;20114;-72
2021/03/09 12:27:30;;;;;;;48.95;27.08;;;5.60;90.60;;;;;;5136095;27;20031;-72
2021/03/09 12:29:56;;;;;;;41.65;24.30;;;5.50;90.50;;;;;;5135989;27;20035;-71
2021/03/09 12:32:22;;;;;;;45.42;25.63;;;5.40;90.70;;;;;;5136005;27;20079;-72
2021/03/09 12:34:48;;;;;;;48.15;27.13;;;5.50;90.80;;;;;;5135879;27;20035;-72
2021/03/09 12:37:13;;;;;;;65.18;34.90;;;5.50;90.90;;;;;;5135652;27;20122;-72
2021/03/09 12:39:39;;;;;;;78.30;40.83;;;5.50;90.90;;;;;;5135317;27;20589;-72
2021/03/09 12:42:05;;;;;;;75.40;40.08;;;5.50;91.20;;;;;;5135439;27;20487;-71
2021/03/09 12:44:31;;;;;;;82.03;44.35;;;5.50;91.10;;;;;;5134491;27;20071;-71
2021/03/09 12:46:57;;;;;;;88.93;47.83;;;5.50;91.20;;;;;;5135911;27;20105;-71
2021/03/09 12:49:22;;;;;;;88.15;47.40;;;5.40;91.20;;;;;;5135563;27;20032;-72
2021/03/09 12:51:48;;;;;;;87.35;47.40;;;5.50;91.10;;;;;;5135027;27;20532;-71
2021/03/09 12:54:14;;;;;;;77.90;42.50;;;5.50;91.10;;;;;;5134670;27;20037;-72